createdAt,value
2022-08-11T00:02:34.683Z,17.45
2022-08-11T00:05:06.266Z,16.89
2022-08-11T00:07:34.017Z,17.43
2022-08-11T00:10:01.736Z,16.88
2022-08-11T00:12:31.399Z,17.22
2022-08-11T00:15:01.111Z,17.29
2022-08-11T00:17:31.560Z,17.31
2022-08-11T00:20:16.308Z,17.21
2022-08-11T00:22:47.753Z,16.80
2022-08-11T00:25:16.878Z,17.20
2022-08-11T00:27:44.312Z,17.02
2022-08-11T00:30:13.890Z,17.04
2022-08-11T00:32:51.556Z,17.04
2022-08-11T00:35:56.229Z,17.05
2022-08-11T00:38:11.873Z,16.95
2022-08-11T00:41:07.719Z,17.13
2022-08-11T00:44:03.610Z,16.80
2022-08-11T00:46:46.543Z,17.11
2022-08-11T00:49:40.108Z,17.10
2022-08-11T00:52:24.025Z,16.90
2022-08-11T00:55:02.870Z,17.07
2022-08-11T00:57:42.318Z,17.02
2022-08-11T01:00:17.023Z,16.57
2022-08-11T01:03:25.160Z,17.05
2022-08-11T01:06:23.101Z,17.02
2022-08-11T01:08:57.008Z,16.99
2022-08-11T01:11:56.060Z,16.89
2022-08-11T01:14:41.824Z,17.05
2022-08-11T01:17:27.169Z,16.88
2022-08-11T01:20:44.938Z,16.83
2022-08-11T01:23:21.042Z,16.82
2022-08-11T01:26:12.330Z,16.73
2022-08-11T01:29:19.491Z,16.75
2022-08-11T01:32:07.488Z,16.18
2022-08-11T01:35:02.071Z,16.71
2022-08-11T01:37:55.149Z,16.70
2022-08-11T01:40:40.758Z,16.56
2022-08-11T01:43:42.187Z,16.01
2022-08-11T01:46:31.085Z,16.54
2022-08-11T01:50:06.828Z,16.54
2022-08-11T01:52:30.184Z,16.58
2022-08-11T01:55:12.893Z,16.43
2022-08-11T01:57:47.700Z,16.51
2022-08-11T02:00:21.672Z,16.49
2022-08-11T02:03:07.840Z,16.17
2022-08-11T02:05:43.591Z,16.44
2022-08-11T02:08:15.202Z,16.45
2022-08-11T02:11:13.220Z,16.14
2022-08-11T02:13:49.274Z,16.20
2022-08-11T02:16:19.981Z,16.47
2022-08-11T02:19:19.581Z,16.48
2022-08-11T02:22:13.918Z,16.48
2022-08-11T02:24:58.526Z,16.53
2022-08-11T02:27:36.206Z,16.50
2022-08-11T02:30:08.637Z,15.97
2022-08-11T02:33:25.120Z,16.28
2022-08-11T02:36:08.453Z,16.03
2022-08-11T02:38:35.678Z,16.50
2022-08-11T02:41:43.281Z,16.55
2022-08-11T02:44:34.713Z,16.47
2022-08-11T02:47:09.476Z,15.52
2022-08-11T02:49:59.927Z,16.38
2022-08-11T02:53:07.166Z,16.50
2022-08-11T02:55:57.129Z,16.49
2022-08-11T02:58:35.621Z,16.45
2022-08-11T03:01:11.775Z,16.48
2022-08-11T03:04:00.766Z,16.37
2022-08-11T03:06:48.375Z,16.48
2022-08-11T03:09:27.957Z,16.48
2022-08-11T03:12:32.650Z,16.45
2022-08-11T03:15:29.139Z,16.61
2022-08-11T03:18:04.769Z,16.68
2022-08-11T03:20:43.714Z,16.73
2022-08-11T03:23:39.167Z,16.69
2022-08-11T03:26:28.274Z,16.88
2022-08-11T03:29:04.519Z,16.88
2022-08-11T03:31:47.270Z,17.05
2022-08-11T03:34:24.840Z,16.90
2022-08-11T03:37:50.513Z,17.15
2022-08-11T03:40:47.841Z,17.06
2022-08-11T03:44:04.574Z,17.23
2022-08-11T03:46:56.073Z,17.19
2022-08-11T03:50:12.466Z,17.29
2022-08-11T03:53:04.159Z,16.73
2022-08-11T03:55:58.678Z,16.80
2022-08-11T03:58:46.634Z,17.39
2022-08-11T04:01:34.049Z,17.44
2022-08-11T04:04:03.757Z,17.56
2022-08-11T04:07:18.715Z,17.37
2022-08-11T04:10:00.750Z,17.61
2022-08-11T04:13:05.128Z,17.71
2022-08-11T04:16:11.059Z,17.26
2022-08-11T04:18:58.512Z,17.86
2022-08-11T04:21:53.273Z,17.92
2022-08-11T04:24:37.553Z,17.92
2022-08-11T04:27:39.303Z,18.04
2022-08-11T04:30:40.526Z,17.81
2022-08-11T04:33:59.915Z,18.22
2022-08-11T04:37:11.766Z,18.34
2022-08-11T04:40:26.128Z,18.35
2022-08-11T04:43:24.044Z,18.46
2022-08-11T04:46:09.188Z,18.56
2022-08-11T04:49:34.224Z,18.59
2022-08-11T04:53:08.778Z,18.68
2022-08-11T04:56:32.865Z,18.75
2022-08-11T04:59:46.247Z,18.82
2022-08-11T05:02:17.488Z,18.83
2022-08-11T05:05:22.039Z,18.85
2022-08-11T05:08:07.421Z,19.00
2022-08-11T05:11:03.133Z,19.06
2022-08-11T05:14:05.301Z,18.30
2022-08-11T05:17:06.446Z,19.28
2022-08-11T05:19:52.226Z,19.17
2022-08-11T05:22:40.460Z,19.35
2022-08-11T05:26:45.486Z,19.45
2022-08-11T05:28:46.316Z,19.43
2022-08-11T05:31:33.986Z,19.58
2022-08-11T05:34:29.683Z,19.73
2022-08-11T05:37:26.308Z,19.90
2022-08-11T05:40:18.897Z,19.93
2022-08-11T05:43:09.495Z,20.08
2022-08-11T05:46:02.757Z,19.78
2022-08-11T05:48:54.441Z,19.91
2022-08-11T05:51:51.918Z,19.77
2022-08-11T05:54:46.048Z,20.42
2022-08-11T05:57:48.767Z,20.14
2022-08-11T06:00:10.813Z,20.26
2022-08-11T06:02:52.249Z,20.75
2022-08-11T06:05:37.223Z,20.88
2022-08-11T06:08:12.479Z,21.00
2022-08-11T06:10:44.373Z,21.17
2022-08-11T06:13:16.306Z,21.27
2022-08-11T06:15:53.055Z,20.91
2022-08-11T06:18:20.020Z,21.62
2022-08-11T06:20:57.009Z,21.55
2022-08-11T06:23:32.536Z,21.26
2022-08-11T06:26:01.502Z,21.70
2022-08-11T06:28:38.808Z,21.70
2022-08-11T06:31:19.314Z,21.95
2022-08-11T06:33:49.014Z,21.71
2022-08-11T06:36:18.440Z,22.23
2022-08-11T06:39:02.836Z,22.35
2022-08-11T06:41:38.470Z,22.56
2022-08-11T06:44:14.800Z,22.65
2022-08-11T06:46:51.554Z,22.77
2022-08-11T06:49:40.946Z,22.96
2022-08-11T06:52:35.224Z,22.48
2022-08-11T06:55:55.596Z,23.20
2022-08-11T06:58:20.988Z,23.37
2022-08-11T07:00:53.859Z,23.40
2022-08-11T07:03:22.090Z,23.64
2022-08-11T07:06:25.701Z,23.86
2022-08-11T07:09:13.990Z,23.80
2022-08-11T07:12:19.691Z,23.76
2022-08-11T07:15:14.194Z,23.97
2022-08-11T07:17:49.532Z,23.88
2022-08-11T07:20:37.011Z,24.00
2022-08-11T07:23:27.548Z,23.98
2022-08-11T07:26:16.894Z,23.83
2022-08-11T07:28:58.112Z,24.25
2022-08-11T07:31:33.010Z,24.40
2022-08-11T07:34:20.238Z,24.62
2022-08-11T07:37:04.366Z,24.56
2022-08-11T07:39:37.016Z,24.79
2022-08-11T07:42:10.006Z,24.72
2022-08-11T07:44:57.959Z,24.58
2022-08-11T07:47:45.185Z,24.59
2022-08-11T07:50:31.642Z,24.81
2022-08-11T07:53:00.992Z,24.89
2022-08-11T07:55:48.922Z,24.93
2022-08-11T07:58:44.862Z,25.05
2022-08-11T08:01:44.159Z,24.85
2022-08-11T08:04:32.551Z,24.79
2022-08-11T08:07:21.573Z,24.47
2022-08-11T08:10:08.559Z,23.68
2022-08-11T08:12:54.524Z,24.48
2022-08-11T08:15:41.222Z,24.47
2022-08-11T08:18:25.678Z,24.11
2022-08-11T08:20:56.881Z,24.40
2022-08-11T08:23:33.998Z,24.67
2022-08-11T08:26:05.742Z,24.41
2022-08-11T08:28:46.695Z,24.87
2022-08-11T08:31:15.028Z,24.79
2022-08-11T08:33:43.058Z,25.12
2022-08-11T08:36:15.500Z,25.25
2022-08-11T08:38:50.183Z,25.28
2022-08-11T08:41:25.078Z,25.33
2022-08-11T08:44:02.456Z,25.53
2022-08-11T08:46:49.619Z,25.72
2022-08-11T08:49:19.983Z,25.63
2022-08-11T08:52:29.561Z,25.58
2022-08-11T08:54:43.361Z,25.54
2022-08-11T08:57:12.173Z,25.47
2022-08-11T08:59:48.466Z,25.71
2022-08-11T09:02:20.573Z,25.40
2022-08-11T09:05:04.695Z,25.78
2022-08-11T09:07:38.715Z,25.86
2022-08-11T09:10:07.874Z,26.13
2022-08-11T09:12:38.912Z,25.84
2022-08-11T09:15:10.592Z,25.88
2022-08-11T09:17:44.934Z,25.85
2022-08-11T09:20:21.928Z,25.78
2022-08-11T09:26:16.210Z,25.57
2022-08-11T09:28:47.679Z,25.91
2022-08-11T09:31:16.333Z,25.82
2022-08-11T09:33:44.658Z,25.73
2022-08-11T09:36:33.798Z,25.72
2022-08-11T09:39:21.878Z,25.70
2022-08-11T09:42:00.806Z,25.18
2022-08-11T09:44:53.207Z,25.51
2022-08-11T09:47:30.422Z,24.92
2022-08-11T09:50:01.186Z,24.85
2022-08-11T09:52:57.139Z,25.04
2022-08-11T09:55:28.837Z,25.78
2022-08-11T09:58:41.843Z,26.21
2022-08-11T10:01:05.514Z,26.92
2022-08-11T10:03:40.493Z,26.77
2022-08-11T10:06:34.196Z,26.72
2022-08-11T10:09:05.380Z,26.59
2022-08-11T10:11:35.149Z,26.60
2022-08-11T10:14:34.276Z,26.52
2022-08-11T10:17:08.141Z,26.26
2022-08-11T10:19:40.239Z,25.91
2022-08-11T10:22:28.399Z,25.93
2022-08-11T10:25:19.817Z,25.85
2022-08-11T10:28:28.488Z,25.25
2022-08-11T10:31:00.660Z,25.35
2022-08-11T10:33:59.370Z,25.23
2022-08-11T10:36:54.337Z,25.23
2022-08-11T10:39:23.001Z,25.28
2022-08-11T10:42:14.347Z,25.38
2022-08-11T10:44:52.750Z,25.40
2022-08-11T10:47:35.299Z,25.53
2022-08-11T10:50:28.940Z,25.58
2022-08-11T10:53:17.682Z,25.81
2022-08-11T10:58:49.387Z,25.89
2022-08-11T11:01:23.061Z,25.58
2022-08-11T11:03:59.029Z,26.02
2022-08-11T11:07:19.983Z,26.35
2022-08-11T11:10:10.818Z,26.38
2022-08-11T11:13:05.725Z,26.41
2022-08-11T11:15:54.510Z,26.23
2022-08-11T11:18:25.107Z,26.61
2022-08-11T11:20:57.976Z,26.70
2022-08-11T11:23:50.173Z,26.61
2022-08-11T11:26:50.518Z,26.48
2022-08-11T11:29:26.327Z,26.83
2022-08-11T11:32:17.944Z,26.94
2022-08-11T11:35:22.210Z,27.03
2022-08-11T11:38:03.458Z,26.85
2022-08-11T11:40:32.948Z,26.96
2022-08-11T11:43:01.257Z,26.73
2022-08-11T11:45:29.068Z,26.74
2022-08-11T11:47:59.694Z,26.55
2022-08-11T11:50:34.843Z,26.45
2022-08-11T11:53:07.186Z,26.50
2022-08-11T11:55:35.531Z,26.56
2022-08-11T11:58:22.961Z,26.71
2022-08-11T12:01:11.159Z,26.93
2022-08-11T12:03:39.699Z,27.00
2022-08-11T12:06:09.023Z,26.79
2022-08-11T12:08:37.473Z,27.21
2022-08-11T12:11:27.574Z,27.22
2022-08-11T12:13:57.278Z,27.29
2022-08-11T12:16:34.484Z,27.26
2022-08-11T12:19:07.850Z,26.96
2022-08-11T12:21:37.363Z,27.13
2022-08-11T12:24:29.385Z,27.07
2022-08-11T12:27:18.293Z,26.85
2022-08-11T12:29:54.498Z,26.94
2022-08-11T12:32:24.843Z,26.95
2022-08-11T12:34:52.772Z,26.88
2022-08-11T12:37:36.930Z,26.74
2022-08-11T12:40:42.885Z,26.79
2022-08-11T12:43:41.242Z,26.68
2022-08-11T12:46:31.849Z,26.54
2022-08-11T12:49:23.390Z,26.51
2022-08-11T12:52:01.020Z,26.77
2022-08-11T12:55:02.459Z,26.83
2022-08-11T12:57:56.456Z,26.87
2022-08-11T13:00:43.566Z,26.75
2022-08-11T13:03:31.180Z,26.85
2022-08-11T13:06:02.839Z,26.64
2022-08-11T13:08:34.118Z,26.45
2022-08-11T13:11:21.227Z,26.59
2022-08-11T13:13:54.256Z,26.69
2022-08-11T13:16:31.343Z,26.38
2022-08-11T13:19:01.338Z,26.16
2022-08-11T13:21:30.250Z,26.12
2022-08-11T13:24:01.115Z,25.83
2022-08-11T13:26:46.941Z,26.17
2022-08-11T13:29:28.539Z,26.31
2022-08-11T13:32:02.062Z,26.03
2022-08-11T13:34:33.728Z,26.05
2022-08-11T13:37:05.265Z,26.03
2022-08-11T13:39:34.518Z,26.06
2022-08-11T13:42:03.912Z,26.05
2022-08-11T13:44:33.633Z,25.83
2022-08-11T13:47:04.486Z,25.19
2022-08-11T13:49:35.485Z,25.88
2022-08-11T13:52:04.284Z,25.59
2022-08-11T13:54:35.063Z,25.25
2022-08-11T13:57:09.313Z,25.91
2022-08-11T13:59:51.854Z,25.94
2022-08-11T14:02:29.364Z,25.70
2022-08-11T14:05:03.118Z,25.82
2022-08-11T14:07:39.204Z,25.91
2022-08-11T14:10:08.853Z,25.78
2022-08-11T14:12:56.438Z,25.73
2022-08-11T14:15:34.225Z,25.68
2022-08-11T14:18:29.425Z,25.70
2022-08-11T14:21:17.421Z,25.36
2022-08-11T14:23:50.920Z,25.57
2022-08-11T14:26:31.285Z,25.21
2022-08-11T14:29:05.602Z,25.76
2022-08-11T14:31:35.826Z,25.20
2022-08-11T14:34:10.510Z,25.57
2022-08-11T14:36:42.031Z,25.56
2022-08-11T14:39:14.486Z,25.22
2022-08-11T14:42:10.115Z,25.57
2022-08-11T14:45:02.564Z,25.62
2022-08-11T14:47:36.028Z,25.58
2022-08-11T14:50:11.567Z,25.57
2022-08-11T14:52:56.601Z,25.42
2022-08-11T14:55:44.765Z,25.53
2022-08-11T14:58:16.235Z,25.51
2022-08-11T15:00:44.413Z,25.46
2022-08-11T15:03:14.628Z,25.48
2022-08-11T15:05:56.829Z,25.43
2022-08-11T15:08:56.807Z,25.20
2022-08-11T15:11:47.281Z,25.38
2022-08-11T15:14:35.212Z,25.44
2022-08-11T15:17:08.566Z,25.34
2022-08-11T15:19:40.846Z,25.38
2022-08-11T15:22:29.437Z,25.28
2022-08-11T15:24:59.151Z,24.79
2022-08-11T15:27:48.872Z,25.25
2022-08-11T15:30:35.266Z,25.17
2022-08-11T15:33:26.639Z,25.07
2022-08-11T15:36:14.315Z,24.71
2022-08-11T15:38:55.402Z,24.96
2022-08-11T15:41:46.583Z,24.87
2022-08-11T15:45:03.107Z,24.58
2022-08-11T15:47:42.025Z,24.59
2022-08-11T15:50:18.109Z,24.78
2022-08-11T15:53:02.826Z,24.31
2022-08-11T15:55:32.559Z,24.62
2022-08-11T15:58:22.623Z,24.74
2022-08-11T16:01:09.915Z,24.71
2022-08-11T16:04:07.355Z,24.64
2022-08-11T16:06:47.735Z,24.41
2022-08-11T16:09:26.434Z,24.28
2022-08-11T16:12:00.887Z,24.42
2022-08-11T16:14:50.019Z,24.45
2022-08-11T16:17:18.819Z,24.44
2022-08-11T16:19:48.742Z,24.35
2022-08-11T16:22:29.698Z,24.14
2022-08-11T16:27:02.079Z,24.22
2022-08-11T16:27:51.575Z,24.33
2022-08-11T16:30:19.150Z,24.24
2022-08-11T16:32:53.190Z,23.87
2022-08-11T16:35:42.520Z,24.20
2022-08-11T16:38:30.190Z,24.02
2022-08-11T16:40:59.043Z,24.15
2022-08-11T16:43:49.011Z,24.04
2022-08-11T16:46:36.612Z,23.54
2022-08-11T16:49:09.315Z,24.01
2022-08-11T16:51:36.867Z,23.78
2022-08-11T16:54:06.322Z,23.36
2022-08-11T16:56:43.692Z,23.73
2022-08-11T16:59:18.554Z,23.87
2022-08-11T17:02:00.214Z,23.89
2022-08-11T17:04:57.966Z,23.83
2022-08-11T17:07:44.758Z,23.91
2022-08-11T17:10:50.402Z,23.58
2022-08-11T17:13:37.294Z,23.52
2022-08-11T17:16:08.163Z,23.56
2022-08-11T17:18:45.846Z,23.54
2022-08-11T17:21:17.524Z,22.96
2022-08-11T17:23:50.098Z,23.38
2022-08-11T17:26:21.056Z,23.27
2022-08-11T17:28:56.449Z,23.28
2022-08-11T17:31:44.941Z,23.07
2022-08-11T17:34:32.522Z,22.68
2022-08-11T17:37:00.262Z,23.14
2022-08-11T17:39:31.189Z,23.08
2022-08-11T17:42:18.857Z,23.04
2022-08-11T17:45:06.582Z,23.02
2022-08-11T17:47:53.099Z,22.42
2022-08-11T17:50:21.285Z,22.54
2022-08-11T17:53:08.008Z,22.75
2022-08-11T17:55:57.605Z,22.79
2022-08-11T17:58:45.113Z,22.70
2022-08-11T18:01:13.423Z,22.23
2022-08-11T18:03:57.321Z,22.20
2022-08-11T18:06:35.177Z,22.49
2022-08-11T18:09:22.475Z,22.71
2022-08-11T18:12:12.159Z,22.46
2022-08-11T18:15:02.469Z,22.04
2022-08-11T18:17:49.937Z,22.27
2022-08-11T18:20:36.972Z,21.75
2022-08-11T18:23:40.567Z,21.92
2022-08-11T18:26:38.524Z,22.20
2022-08-11T18:29:26.366Z,22.04
2022-08-11T18:32:20.954Z,21.58
2022-08-11T18:35:09.651Z,21.14
2022-08-11T18:37:55.617Z,22.23
2022-08-11T18:40:45.081Z,21.77
2022-08-11T18:43:33.794Z,21.51
2022-08-11T18:46:25.505Z,21.83
2022-08-11T18:49:16.028Z,21.51
2022-08-11T18:52:06.322Z,21.65
2022-08-11T18:54:55.362Z,21.85
2022-08-11T18:57:49.878Z,21.66
2022-08-11T19:00:45.186Z,21.70
2022-08-11T19:03:43.251Z,21.25
2022-08-11T19:06:41.014Z,21.32
2022-08-11T19:09:31.421Z,21.50
2022-08-11T19:12:18.391Z,21.51
2022-08-11T19:15:06.759Z,21.12
2022-08-11T19:17:54.341Z,21.58
2022-08-11T19:20:42.835Z,21.34
2022-08-11T19:23:31.077Z,21.10
2022-08-11T19:26:18.689Z,21.48
2022-08-11T19:29:06.705Z,20.97
2022-08-11T19:31:53.839Z,21.43
2022-08-11T19:34:43.312Z,21.41
2022-08-11T19:37:30.077Z,21.37
2022-08-11T19:40:26.979Z,21.30
2022-08-11T19:43:24.539Z,21.31
2022-08-11T19:46:14.869Z,21.17
2022-08-11T19:49:02.364Z,21.07
2022-08-11T19:51:53.451Z,20.71
2022-08-11T19:54:47.403Z,21.17
2022-08-11T19:57:39.694Z,21.14
2022-08-11T20:00:38.191Z,20.98
2022-08-11T20:03:25.297Z,21.28
2022-08-11T20:06:13.843Z,20.94
2022-08-11T20:09:01.850Z,20.94
2022-08-11T20:11:50.420Z,20.73
2022-08-11T20:14:38.829Z,20.76
2022-08-11T20:17:26.902Z,20.74
2022-08-11T20:20:12.608Z,20.28
2022-08-11T20:22:59.199Z,20.39
2022-08-11T20:25:45.924Z,20.35
2022-08-11T20:28:33.199Z,20.69
2022-08-11T20:31:22.536Z,20.71
2022-08-11T20:34:09.548Z,20.30
2022-08-11T20:36:57.000Z,20.21
2022-08-11T20:39:44.395Z,20.18
2022-08-11T20:42:31.903Z,20.17
2022-08-11T20:45:23.626Z,20.48
2022-08-11T20:48:15.053Z,20.37
2022-08-11T20:51:07.384Z,20.36
2022-08-11T20:53:59.686Z,20.39
2022-08-11T20:56:54.493Z,20.27
2022-08-11T20:59:43.735Z,20.34
2022-08-11T21:02:37.131Z,19.90
2022-08-11T21:08:31.001Z,20.29
2022-08-11T21:11:27.980Z,20.11
2022-08-11T21:14:14.731Z,20.12
2022-08-11T21:17:26.760Z,20.18
2022-08-11T21:20:18.390Z,20.08
2022-08-11T21:23:18.491Z,19.94
2022-08-11T21:26:20.943Z,19.64
2022-08-11T21:29:08.155Z,19.88
2022-08-11T21:31:55.255Z,18.72
2022-08-11T21:34:42.633Z,19.79
2022-08-11T21:37:28.843Z,20.01
2022-08-11T21:40:18.944Z,19.78
2022-08-11T21:43:06.687Z,19.29
2022-08-11T21:45:55.753Z,19.73
2022-08-11T21:48:44.310Z,19.14
2022-08-11T21:51:30.034Z,19.67
2022-08-11T21:54:17.227Z,19.02
2022-08-11T21:57:05.033Z,19.54
2022-08-11T22:00:03.504Z,19.40
2022-08-11T22:03:03.421Z,19.55
2022-08-11T22:05:52.059Z,19.45
2022-08-11T22:08:37.985Z,19.37
2022-08-11T22:11:31.916Z,19.17
2022-08-11T22:14:20.710Z,18.96
2022-08-11T22:17:06.265Z,19.16
2022-08-11T22:19:54.287Z,18.48
2022-08-11T22:22:52.502Z,18.79
2022-08-11T22:25:53.632Z,19.31
2022-08-11T22:28:40.186Z,19.14
2022-08-11T22:31:28.995Z,19.18
2022-08-11T22:34:14.895Z,19.20
2022-08-11T22:37:02.322Z,18.97
2022-08-11T22:39:59.826Z,19.29
2022-08-11T22:42:51.538Z,19.05
2022-08-11T22:45:38.348Z,18.87
2022-08-11T22:48:25.397Z,18.89
2022-08-11T22:51:12.569Z,18.98
2022-08-11T22:53:59.644Z,18.47
2022-08-11T22:56:50.846Z,18.98
2022-08-11T22:59:38.885Z,18.90
2022-08-11T23:02:26.267Z,18.90
2022-08-11T23:05:11.795Z,19.01
2022-08-11T23:07:58.101Z,18.78
2022-08-11T23:10:44.464Z,18.02
2022-08-11T23:13:30.816Z,18.41
2022-08-11T23:16:17.676Z,18.17
2022-08-11T23:19:04.844Z,18.64
2022-08-11T23:21:50.356Z,18.75
2022-08-11T23:24:36.874Z,18.41
2022-08-11T23:27:24.503Z,18.51
2022-08-11T23:30:13.730Z,18.30
2022-08-11T23:33:05.406Z,18.47
2022-08-11T23:35:56.446Z,18.36
2022-08-11T23:38:45.504Z,18.25
2022-08-11T23:41:34.304Z,17.77
2022-08-11T23:44:21.171Z,17.95
2022-08-11T23:47:09.244Z,18.40
2022-08-11T23:49:56.372Z,18.35
2022-08-11T23:52:46.225Z,18.36
2022-08-11T23:55:31.851Z,17.97
2022-08-11T23:58:17.499Z,18.31
